Latest Observation

39 Stations

15 Minute Data | America/Los_Angeles
as of 5/17/22 3:07 AM PDT
Station Date Time Temp (°F) RH (%) Dew Pt (°F) Wind Dir (°) Wind Spd (mph) Wind Gust (mph) Solar Rad (W/m2) Latest Rain (In) Daily Rain (In) Daily Max Temp (°F) Daily Min Temp (°F) Daily Max Wind (mph) Daily ETo (in) Daily Leaf Wet Hrs (hrs)
Colony 1 5/17/22 0300 49.5   2.3 88   6 46.1   0.6 ESE | 116 1.2   0.4 1.8   1.2 0   0 0.00 0.00 51.3   3.3 49.2   2.4 2.1   1.5 0.000   0.000 -
Colony 2 5/17/22 0300 50.5   2.7 82   5 45.2   1.0 SE | 145 1.6   1.4 2.5   2.9 0   0 0.00 0.00 53.0   3.0 50.2   2.6 3.4   2.0 0.000   0.000 -
5 Wells 5/17/22 0300 50.4   4.0 80   12 44.5   0.3 SSW | 198 2.4   0.6 3.3   2.2 0   0 0.00 0.00 51.6   5.0 49.9   4.2 3.7   3.1 0.000   0.000 -
Simmerhorn 5/17/22 0300 49.7   2.7 93   13 47.7   1.3 - - - - - - 52.5   3.6 48.9   2.8 - - -
Galt-East 5/17/22 0300 52.0   2.7 81   9 46.4   0.6 SW | 214 0.8   1.2 1.8   2.3 0   0 0.00 0.00 54.1   3.2 51.6   2.4 1.9   3.9 0.000   0.000 -
Borden Hills 5/17/22 0300 51.2   1.7 82   6 46.0   0.5 E | 79 1.6   0.6 2.6   0.9 0   0 0.00 0.00 54.5   3.2 50.6   1.5 5.8   0.4 0.000   0.000 -
Sierra Loma-L27 5/17/22 0300 52.7   0.6 81   5 47.2   1.1 ENE | 66 1.1   1.7 1.6   2.8 - 0.00 0.00 52.8   3.5 51.6   1.0 3.5   0.9 - -
Lockeford 5/17/22 0300 50.4   2.2 86   5 46.2   0.6 WNW | 301 0.5   0.5 2.7   2.7 1   0 0.00 0.00 53.2   2.9 49.4   2.4 3.1   1.3 0.000   0.000 2.0   2.0
Lone Oak-L28 5/17/22 0300 48.6   1.4 91   3 46.0   0.5 N | 357 0.1   1.9 0.7   3.2 - 0.00 0.00 51.9   1.1 48.2   1.2 4.2   0.0 - -
Kost Rd 5/17/22 0300 48.8   7.3 87   10 45.0   4.0 E | 86 0.1   2.4 1.1   6.1 0   0 0.00 0.00 53.9   3.4 48.2   7.3 3.3   5.2 0.000   0.000 -
Thornton 5/17/22 0300 48.8   8.5 82   13 43.6   3.8 E | 80 0.2   5.7 1.7   10.7 0   0 0.00 0.00 54.3   3.6 48.5   7.8 2.7   9.7 0.000   0.000 0.0   0.0
Lodi (LangeTwins) 5/17/22 0300 54.0   3.4 80   7 48.2   0.9 WSW | 247 1.2   3.1 3.8   4.7 0   0 0.00 0.00 55.4   3.1 53.9   3.4 6.1   4.7 0.000   0.001 0.0   0.0
Gilbeau Ranch 5/17/22 0300 50.2   3.2 83   11 45.2   0.8 SE | 129 1.2   0.9 1.7   1.6 0   0 0.00 0.00 52.5   4.8 49.7   3.4 1.7   6.1 0.000   0.000 -
Galt West 5/17/22 0300 49.3   2.7 90   9 46.5   0.1 ESE | 117 0.8   1.1 2.4   0.7 0   0 0.00 0.00 51.5   3.9 48.9   2.7 2.7   2.2 0.000   0.000 -
Valley Oak 5/17/22 0300 48.8   5.1 99   23 48.4   2.0 ESE | 107 0.9   1.7 1.8   5.9 0   0 0.00 0.00 50.2   5.8 48.6   3.2 2.4   5.3 0.000   0.000 -
Guard Rd (Lodi WSW) 5/17/22 0300 48.4   10.4 91   24 45.9   1.9 SSE | 161 0.7   7.3 2.5   13.2 0   0 0.00 0.00 55.8   4.8 47.6   9.8 6.4   9.2 0.000   0.002 0.0   0.0
Linden 5/17/22 0300 45.7   3.9 97   0 44.8   3.9 SSW | 202 0.1   1.3 1.1   1.4 - 0.00 0.00 47.4   3.2 45.3   3.4 1.1   1.4 - 2.0   0.0
DeVries Road-North 5/17/22 0300 49.0   7.3 89   14 45.9   2.7 S | 189 0.0   2.9 0.6   6.0 0   0 0.00 0.00 54.9   2.9 48.5   7.6 6.3   1.3 0.000   0.000 -
Acampo 5/17/22 0300 50.4   7.2 81   19 44.8   0.1 N | 0 0.0   0.0 0.0   0.0 0   0 - 0.00 50.8   8.7 49.7   7.0 0.0   0.0 0.000   0.000 0.0   0.0
Acampo (Woodbridge) 5/17/22 0300 54.1   2.3 76   8 46.7   0.5 NNW | 334 1.8   0.9 3.1   1.8 0   0 0.00 0.00 55.2   3.0 53.0   1.6 6.0   2.6 0.000   0.000 -
Lodi West 5/17/22 0300 54.0   5.0 76   13 46.5   0.0 SSE | 162 0.6   2.6 3.5   5.9 0   0 0.00 0.00 56.8   3.6 53.4   4.1 7.0   3.7 0.000   0.000 0.1   0.1
Teresi-Alpine Rd (East Lodi) 5/17/22 0300 48.5   2.3 88   3 45.0   1.5 E | 86 0.9   1.1 2.6   1.1 0   0 0.00 0.00 50.5   3.3 48.4   2.0 2.9   2.1 0.000   0.000 -
Victor - N (Katusha) 5/17/22 0300 53.9   3.2 72   8 45.1   0.2 N | 0 0.0   0.5 0.0   3.1 - 0.00 0.00 55.5   0.5 53.2   3.3 - - -
Live Oak 5/17/22 0300 46.5   3.9 86   4 42.4   5.1 SSE | 166 0.2   1.5 1.3   2.3 0   0 0.00 0.00 49.3   2.9 46.3   3.1 2.2   1.3 0.000   0.000 -
Sheldon 5/17/22 0300 49.1   3.7 91   13 46.5   0.6 SE | 138 1.4   2.1 2.7   4.0 0   0 0.00 0.00 52.1   2.6 48.8   3.8 2.7   4.0 0.000   0.000 0.0   0.0
Sloughhouse 5/17/22 0300 47.0   4.5 93   14 45.0   0.3 N | 0 0.0   3.4 0.0   6.8 0   0 0.00 0.00 49.4   5.2 46.7   4.2 2.7   4.0 0.000   0.000 -
Utter - Wilson 5/17/22 0300 53.0   2.3 85   6 48.6   0.4 SSE | 150 2.3   0.9 3.7   4.3 0   0 0.00 0.00 55.4   0.9 52.8   2.0 5.3   2.6 0.000   0.000 -
Clarksburg 5/17/22 0300 52.0   4.4 83   9 46.9   1.3 S | 176 2.3   3.3 3.4   9.9 0   0 0.00 0.00 56.5   1.3 51.6   4.2 6.8   6.4 0.000   0.000 -
Clarksburg-3A2 5/17/22 0300 53.4   3.7 82   7 48.1   1.2 SSW | 204 2.4   5.2 3.4   10.3 0   0 0.00 0.00 56.0   1.7 52.8   3.8 8.0   5.7 0.000   0.001 -
Gorter - Wilson 5/17/22 0300 51.2   5.0 89   11 48.0   1.6 S | 172 2.2   2.0 3.1   4.7 0   0 0.00 0.00 54.3   2.6 51.1   4.3 3.9   6.9 0.000   0.000 -
Hood 5/17/22 0300 48.5   8.6 93   16 46.6   3.4 ESE | 102 0.8   4.0 2.4   7.3 0   0 0.00 0.00 52.4   5.4 48.2   7.8 2.5   8.1 0.000   0.000 -
Courtland-C3 5/17/22 0300 51.6   5.3 82   6 46.4   3.1 SSE | 150 1.2   5.4 2.9   9.0 - 0.00 0.00 55.6   2.3 51.0   5.6 6.5   11.0 - -
Pacific Fruit 5/17/22 0300 54.7   2.5 81   3 49.1   1.5 WSW | 240 4.7   3.8 8.5   5.8 0   0 0.00 0.00 56.3   2.1 54.1   3.0 9.0   9.0 0.000   0.001 -
Ryer Island South 5/17/22 0300 56.3   2.2 70   4 46.7   3.8 WSW | 256 4.8   5.9 9.7   9.4 0   0 0.00 0.00 57.4   2.2 56.1   2.3 19.2   0.1 0.001   0.001 0.0   0.0
Farmington (Mobley100) 5/17/22 0300 47.6   3.5 92   3 45.4   2.6 WSW | 245 0.0   0.0 0.0   0.0 - - - 49.8   2.8 47.3   3.5 0.0   2.0 - -
Collegeville 5/17/22 0300 48.2   6.6 92   12 46.2   2.7 WNW | 301 0.0   1.1 0.2   3.6 0   0 0.00 0.00 49.7   6.6 47.8   6.8 1.8   5.3 0.000   0.000 -
Oakdale North (28 Mile Rd) 5/17/22 0300 53.8   0.2 76   1 46.3   0.1 NW | 323 0.2   0.4 1.4   2.0 - - - 54.3   2.5 52.4   0.9 3.1   1.5 - -
Escalon 5/17/22 0300 52.6   1.9 80   1 46.5   1.5 NNE | 16 0.7   0.6 2.7   2.4 - 0.00 0.00 55.1   2.3 52.2   2.2 6.4   0.9 - 0.0   0.0
Claussen 5/17/22 0300 53.6   3.5 77   6 46.7   5.3 W | 262 4.8   4.0 9.2   7.4 0   0 0.00 0.00 55.2   2.8 53.4   3.5 13.5   4.9 0.001   0.001 -
Max     56.3 99 49.1 - 4.8 9.7 1 0.00 0.00 57.4 56.1 19.2 0.001 2.0
Avg     50.7 85 46.2 - 1.2 2.6 0 0.00 - - - - - -
Min     45.7 70 42.4 - 0.0 0.0 0 0.00 0.00 47.4 45.3 0.0 0.000 0.0